sensor_id;sensor_type;location;lat;lon;timestamp;P1;durP1;ratioP1;P2;durP2;ratioP2
9324;SDS011;4701;51.566;6.776;2022-12-11T06:01:48;60.10;;;25.10;;
9324;SDS011;4701;51.566;6.776;2022-12-11T06:03:50;55.87;;;25.53;;
9324;SDS011;4701;51.566;6.776;2022-12-11T06:05:52;62.10;;;26.47;;
9324;SDS011;4701;51.566;6.776;2022-12-11T06:07:54;54.27;;;23.60;;
9324;SDS011;4701;51.566;6.776;2022-12-11T06:09:55;60.27;;;26.33;;
9324;SDS011;4701;51.566;6.776;2022-12-11T06:11:57;58.47;;;25.80;;
9324;SDS011;4701;51.566;6.776;2022-12-11T06:13:59;56.97;;;25.73;;
9324;SDS011;4701;51.566;6.776;2022-12-11T06:16:02;60.10;;;26.90;;
9324;SDS011;4701;51.566;6.776;2022-12-11T06:18:07;54.20;;;25.13;;
9324;SDS011;4701;51.566;6.776;2022-12-11T06:20:10;54.47;;;26.20;;
9324;SDS011;4701;51.566;6.776;2022-12-11T06:22:12;57.03;;;26.30;;
9324;SDS011;4701;51.566;6.776;2022-12-11T06:24:13;62.43;;;26.43;;
9324;SDS011;4701;51.566;6.776;2022-12-11T06:26:15;56.43;;;26.83;;
9324;SDS011;4701;51.566;6.776;2022-12-11T06:28:19;61.93;;;26.53;;
9324;SDS011;4701;51.566;6.776;2022-12-11T06:30:21;56.47;;;26.77;;
9324;SDS011;4701;51.566;6.776;2022-12-11T06:32:22;52.50;;;26.13;;
9324;SDS011;4701;51.566;6.776;2022-12-11T06:34:26;59.27;;;26.87;;
9324;SDS011;4701;51.566;6.776;2022-12-11T06:36:28;61.67;;;26.03;;
9324;SDS011;4701;51.566;6.776;2022-12-11T06:38:30;61.43;;;27.83;;
9324;SDS011;4701;51.566;6.776;2022-12-11T06:40:32;58.17;;;26.07;;
9324;SDS011;4701;51.566;6.776;2022-12-11T06:42:34;62.87;;;28.60;;
9324;SDS011;4701;51.566;6.776;2022-12-11T06:44:36;62.37;;;26.77;;
9324;SDS011;4701;51.566;6.776;2022-12-11T06:46:37;63.00;;;28.03;;
9324;SDS011;4701;51.566;6.776;2022-12-11T06:48:39;81.03;;;41.17;;
9324;SDS011;4701;51.566;6.776;2022-12-11T06:50:44;68.47;;;31.20;;
9324;SDS011;4701;51.566;6.776;2022-12-11T06:52:45;56.97;;;27.17;;
9324;SDS011;4701;51.566;6.776;2022-12-11T06:54:47;59.03;;;27.30;;
9324;SDS011;4701;51.566;6.776;2022-12-11T06:56:49;57.60;;;26.37;;
9324;SDS011;4701;51.566;6.776;2022-12-11T06:58:51;61.13;;;27.20;;
9324;SDS011;4701;51.566;6.776;2022-12-11T07:00:53;52.97;;;26.03;;
9324;SDS011;4701;51.566;6.776;2022-12-11T07:02:55;57.70;;;28.47;;
9324;SDS011;4701;51.566;6.776;2022-12-11T07:04:57;53.60;;;26.50;;
9324;SDS011;4701;51.566;6.776;2022-12-11T07:07:00;50.93;;;25.80;;
9324;SDS011;4701;51.566;6.776;2022-12-11T07:09:02;56.80;;;27.43;;
9324;SDS011;4701;51.566;6.776;2022-12-11T07:11:05;53.37;;;25.80;;
9324;SDS011;4701;51.566;6.776;2022-12-11T07:13:08;52.67;;;26.53;;
9324;SDS011;4701;51.566;6.776;2022-12-11T07:15:10;63.20;;;28.30;;
9324;SDS011;4701;51.566;6.776;2022-12-11T07:17:12;54.93;;;27.57;;
9324;SDS011;4701;51.566;6.776;2022-12-11T07:19:14;56.57;;;26.37;;
9324;SDS011;4701;51.566;6.776;2022-12-11T07:21:16;56.67;;;27.00;;
9324;SDS011;4701;51.566;6.776;2022-12-11T07:23:19;55.43;;;25.73;;
9324;SDS011;4701;51.566;6.776;2022-12-11T07:25:21;48.53;;;25.50;;
9324;SDS011;4701;51.566;6.776;2022-12-11T07:27:23;51.87;;;25.93;;
9324;SDS011;4701;51.566;6.776;2022-12-11T07:29:25;53.33;;;26.27;;
9324;SDS011;4701;51.566;6.776;2022-12-11T07:31:28;55.37;;;25.67;;
9324;SDS011;4701;51.566;6.776;2022-12-11T07:33:30;58.10;;;25.80;;
9324;SDS011;4701;51.566;6.776;2022-12-11T07:35:32;49.53;;;26.03;;
9324;SDS011;4701;51.566;6.776;2022-12-11T07:37:34;52.33;;;25.50;;
9324;SDS011;4701;51.566;6.776;2022-12-11T07:39:38;53.67;;;26.07;;
9324;SDS011;4701;51.566;6.776;2022-12-11T07:41:41;46.80;;;25.63;;
9324;SDS011;4701;51.566;6.776;2022-12-11T07:43:44;49.40;;;25.10;;
9324;SDS011;4701;51.566;6.776;2022-12-11T07:45:46;51.73;;;24.57;;
9324;SDS011;4701;51.566;6.776;2022-12-11T07:47:48;47.93;;;23.53;;
9324;SDS011;4701;51.566;6.776;2022-12-11T07:49:50;51.03;;;24.73;;
9324;SDS011;4701;51.566;6.776;2022-12-11T07:51:52;48.73;;;24.23;;
9324;SDS011;4701;51.566;6.776;2022-12-11T07:53:54;43.43;;;23.00;;
9324;SDS011;4701;51.566;6.776;2022-12-11T07:55:59;53.30;;;25.13;;
9324;SDS011;4701;51.566;6.776;2022-12-11T07:58:01;44.80;;;24.90;;
9324;SDS011;4701;51.566;6.776;2022-12-11T08:00:03;49.37;;;25.17;;
9324;SDS011;4701;51.566;6.776;2022-12-11T08:02:12;50.23;;;24.17;;
9324;SDS011;4701;51.566;6.776;2022-12-11T08:04:14;48.13;;;24.73;;
9324;SDS011;4701;51.566;6.776;2022-12-11T08:06:16;50.37;;;22.97;;
9324;SDS011;4701;51.566;6.776;2022-12-11T08:08:18;50.67;;;24.77;;
9324;SDS011;4701;51.566;6.776;2022-12-11T08:10:20;41.73;;;23.43;;
9324;SDS011;4701;51.566;6.776;2022-12-11T08:12:23;47.77;;;23.50;;
9324;SDS011;4701;51.566;6.776;2022-12-11T08:14:25;47.33;;;23.30;;
9324;SDS011;4701;51.566;6.776;2022-12-11T08:16:27;50.10;;;22.93;;
9324;SDS011;4701;51.566;6.776;2022-12-11T08:18:29;44.50;;;23.07;;
9324;SDS011;4701;51.566;6.776;2022-12-11T08:20:31;39.17;;;21.27;;
9324;SDS011;4701;51.566;6.776;2022-12-11T08:22:33;45.60;;;23.80;;
9324;SDS011;4701;51.566;6.776;2022-12-11T08:24:35;41.00;;;21.83;;
9324;SDS011;4701;51.566;6.776;2022-12-11T08:26:37;41.27;;;23.93;;
9324;SDS011;4701;51.566;6.776;2022-12-11T08:28:40;38.20;;;20.27;;
9324;SDS011;4701;51.566;6.776;2022-12-11T08:30:42;40.20;;;21.40;;
9324;SDS011;4701;51.566;6.776;2022-12-11T08:32:44;37.40;;;21.20;;
9324;SDS011;4701;51.566;6.776;2022-12-11T08:34:46;36.10;;;19.37;;
9324;SDS011;4701;51.566;6.776;2022-12-11T08:36:48;34.73;;;18.57;;
9324;SDS011;4701;51.566;6.776;2022-12-11T08:38:50;30.03;;;17.30;;
9324;SDS011;4701;51.566;6.776;2022-12-11T08:40:54;35.17;;;18.33;;
9324;SDS011;4701;51.566;6.776;2022-12-11T08:42:55;33.20;;;17.00;;
9324;SDS011;4701;51.566;6.776;2022-12-11T08:44:59;31.60;;;16.63;;
9324;SDS011;4701;51.566;6.776;2022-12-11T08:47:00;31.77;;;16.87;;
9324;SDS011;4701;51.566;6.776;2022-12-11T08:49:02;30.67;;;16.40;;
9324;SDS011;4701;51.566;6.776;2022-12-11T08:51:05;27.00;;;15.33;;
9324;SDS011;4701;51.566;6.776;2022-12-11T08:53:08;26.23;;;15.37;;
9324;SDS011;4701;51.566;6.776;2022-12-11T08:55:10;25.87;;;14.93;;
9324;SDS011;4701;51.566;6.776;2022-12-11T08:57:13;26.83;;;15.43;;
9324;SDS011;4701;51.566;6.776;2022-12-11T08:59:15;26.40;;;14.83;;
9324;SDS011;4701;51.566;6.776;2022-12-11T09:03:56;28.97;;;15.37;;
9324;SDS011;4701;51.566;6.776;2022-12-11T09:05:58;31.07;;;16.37;;
9324;SDS011;4701;51.566;6.776;2022-12-11T09:08:00;28.17;;;16.03;;
9324;SDS011;4701;51.566;6.776;2022-12-11T09:10:02;27.53;;;15.50;;
9324;SDS011;4701;51.566;6.776;2022-12-11T09:12:04;28.73;;;16.10;;
9324;SDS011;4701;51.566;6.776;2022-12-11T09:14:06;28.47;;;15.30;;
9324;SDS011;4701;51.566;6.776;2022-12-11T09:16:11;27.67;;;16.37;;
9324;SDS011;4701;51.566;6.776;2022-12-11T09:18:16;29.17;;;17.37;;
9324;SDS011;4701;51.566;6.776;2022-12-11T09:20:18;29.40;;;16.30;;
9324;SDS011;4701;51.566;6.776;2022-12-11T09:22:19;34.13;;;21.15;;
9324;SDS011;4701;51.566;6.776;2022-12-11T09:24:21;98.10;;;60.00;;
9324;SDS011;4701;51.566;6.776;2022-12-11T09:26:23;55.53;;;33.63;;
9324;SDS011;4701;51.566;6.776;2022-12-11T09:28:26;37.40;;;20.93;;
9324;SDS011;4701;51.566;6.776;2022-12-11T09:30:27;32.33;;;18.33;;
9324;SDS011;4701;51.566;6.776;2022-12-11T09:32:29;31.00;;;17.03;;
9324;SDS011;4701;51.566;6.776;2022-12-11T09:34:33;30.67;;;16.80;;
9324;SDS011;4701;51.566;6.776;2022-12-11T09:36:34;28.70;;;16.43;;
9324;SDS011;4701;51.566;6.776;2022-12-11T09:38:39;28.97;;;16.70;;
9324;SDS011;4701;51.566;6.776;2022-12-11T09:40:42;34.17;;;17.77;;
9324;SDS011;4701;51.566;6.776;2022-12-11T09:42:49;29.90;;;17.07;;
9324;SDS011;4701;51.566;6.776;2022-12-11T09:44:55;34.23;;;17.93;;
9324;SDS011;4701;51.566;6.776;2022-12-11T09:47:00;30.37;;;17.60;;
9324;SDS011;4701;51.566;6.776;2022-12-11T09:49:02;29.77;;;16.73;;
9324;SDS011;4701;51.566;6.776;2022-12-11T09:51:13;33.83;;;19.70;;
9324;SDS011;4701;51.566;6.776;2022-12-11T09:53:22;34.50;;;19.17;;
9324;SDS011;4701;51.566;6.776;2022-12-11T09:55:31;34.17;;;19.67;;
9324;SDS011;4701;51.566;6.776;2022-12-11T09:57:44;30.63;;;17.97;;
9324;SDS011;4701;51.566;6.776;2022-12-11T09:59:59;34.13;;;19.23;;
9324;SDS011;4701;51.566;6.776;2022-12-11T10:02:14;35.83;;;20.47;;
9324;SDS011;4701;51.566;6.776;2022-12-11T10:04:35;34.17;;;19.83;;
9324;SDS011;4701;51.566;6.776;2022-12-11T10:06:48;34.13;;;18.13;;
9324;SDS011;4701;51.566;6.776;2022-12-11T10:08:59;31.47;;;18.23;;
9324;SDS011;4701;51.566;6.776;2022-12-11T10:11:15;35.87;;;19.10;;
9324;SDS011;4701;51.566;6.776;2022-12-11T10:13:29;34.13;;;17.77;;
9324;SDS011;4701;51.566;6.776;2022-12-11T10:15:42;32.20;;;17.83;;
9324;SDS011;4701;51.566;6.776;2022-12-11T10:17:53;29.33;;;17.73;;
9324;SDS011;4701;51.566;6.776;2022-12-11T10:19:59;30.93;;;17.10;;
9324;SDS011;4701;51.566;6.776;2022-12-11T10:22:11;29.17;;;18.07;;
9324;SDS011;4701;51.566;6.776;2022-12-11T10:24:19;29.67;;;18.07;;
9324;SDS011;4701;51.566;6.776;2022-12-11T10:26:26;29.60;;;16.97;;
9324;SDS011;4701;51.566;6.776;2022-12-11T10:28:28;29.03;;;17.23;;
9324;SDS011;4701;51.566;6.776;2022-12-11T10:30:32;30.60;;;18.80;;
9324;SDS011;4701;51.566;6.776;2022-12-11T10:32:40;29.97;;;18.53;;
9324;SDS011;4701;51.566;6.776;2022-12-11T10:34:49;27.77;;;17.50;;
9324;SDS011;4701;51.566;6.776;2022-12-11T10:36:57;27.80;;;15.83;;
9324;SDS011;4701;51.566;6.776;2022-12-11T10:39:00;27.80;;;17.83;;
9324;SDS011;4701;51.566;6.776;2022-12-11T10:41:04;29.20;;;17.00;;
9324;SDS011;4701;51.566;6.776;2022-12-11T10:43:10;29.47;;;16.83;;
9324;SDS011;4701;51.566;6.776;2022-12-11T10:45:14;29.13;;;16.03;;
9324;SDS011;4701;51.566;6.776;2022-12-11T10:47:16;28.50;;;16.37;;
9324;SDS011;4701;51.566;6.776;2022-12-11T10:49:20;28.67;;;16.23;;
9324;SDS011;4701;51.566;6.776;2022-12-11T10:51:25;28.80;;;16.73;;
9324;SDS011;4701;51.566;6.776;2022-12-11T10:53:35;26.13;;;15.20;;
9324;SDS011;4701;51.566;6.776;2022-12-11T10:55:42;26.03;;;16.10;;
9324;SDS011;4701;51.566;6.776;2022-12-11T10:57:45;27.57;;;16.20;;
9324;SDS011;4701;51.566;6.776;2022-12-11T10:59:55;27.03;;;15.67;;
9324;SDS011;4701;51.566;6.776;2022-12-11T11:01:59;30.23;;;15.53;;
9324;SDS011;4701;51.566;6.776;2022-12-11T11:04:03;26.80;;;15.73;;
9324;SDS011;4701;51.566;6.776;2022-12-11T11:06:13;25.07;;;15.67;;
9324;SDS011;4701;51.566;6.776;2022-12-11T11:08:17;26.03;;;15.77;;
9324;SDS011;4701;51.566;6.776;2022-12-11T11:10:20;27.40;;;15.50;;
9324;SDS011;4701;51.566;6.776;2022-12-11T11:12:24;25.87;;;15.57;;
9324;SDS011;4701;51.566;6.776;2022-12-11T11:14:27;27.40;;;15.60;;
9324;SDS011;4701;51.566;6.776;2022-12-11T11:16:29;27.97;;;15.40;;
9324;SDS011;4701;51.566;6.776;2022-12-11T11:18:32;24.27;;;14.70;;
9324;SDS011;4701;51.566;6.776;2022-12-11T11:20:34;27.93;;;15.60;;
9324;SDS011;4701;51.566;6.776;2022-12-11T11:22:37;26.87;;;15.90;;
9324;SDS011;4701;51.566;6.776;2022-12-11T11:24:42;24.00;;;15.27;;
9324;SDS011;4701;51.566;6.776;2022-12-11T11:26:45;27.97;;;16.17;;
9324;SDS011;4701;51.566;6.776;2022-12-11T11:28:49;22.50;;;14.33;;
9324;SDS011;4701;51.566;6.776;2022-12-11T11:30:55;22.47;;;14.30;;
9324;SDS011;4701;51.566;6.776;2022-12-11T11:33:01;22.87;;;13.87;;
9324;SDS011;4701;51.566;6.776;2022-12-11T11:35:13;23.53;;;13.50;;
9324;SDS011;4701;51.566;6.776;2022-12-11T11:37:23;22.97;;;12.53;;
9324;SDS011;4701;51.566;6.776;2022-12-11T11:39:31;18.73;;;12.10;;
9324;SDS011;4701;51.566;6.776;2022-12-11T11:41:36;19.50;;;12.10;;
9324;SDS011;4701;51.566;6.776;2022-12-11T11:43:49;21.50;;;13.20;;
9324;SDS011;4701;51.566;6.776;2022-12-11T11:45:54;21.47;;;13.53;;
9324;SDS011;4701;51.566;6.776;2022-12-11T11:48:02;24.33;;;15.53;;
9324;SDS011;4701;51.566;6.776;2022-12-11T11:50:15;21.70;;;13.73;;
9324;SDS011;4701;51.566;6.776;2022-12-11T11:52:20;21.43;;;13.33;;
9324;SDS011;4701;51.566;6.776;2022-12-11T11:54:30;21.73;;;12.80;;
9324;SDS011;4701;51.566;6.776;2022-12-11T11:56:35;20.53;;;12.53;;
9324;SDS011;4701;51.566;6.776;2022-12-11T11:58:39;31.13;;;13.93;;
9324;SDS011;4701;51.566;6.776;2022-12-11T12:00:46;23.20;;;14.53;;
9324;SDS011;4701;51.566;6.776;2022-12-11T12:02:50;20.30;;;12.70;;
9324;SDS011;4701;51.566;6.776;2022-12-11T12:04:56;17.87;;;12.03;;
9324;SDS011;4701;51.566;6.776;2022-12-11T12:07:03;20.03;;;12.43;;
9324;SDS011;4701;51.566;6.776;2022-12-11T12:09:16;24.00;;;12.37;;
9324;SDS011;4701;51.566;6.776;2022-12-11T12:11:30;19.17;;;12.53;;
9324;SDS011;4701;51.566;6.776;2022-12-11T12:13:40;20.70;;;13.50;;
9324;SDS011;4701;51.566;6.776;2022-12-11T12:15:52;20.10;;;12.73;;
9324;SDS011;4701;51.566;6.776;2022-12-11T12:17:56;20.27;;;13.17;;
9324;SDS011;4701;51.566;6.776;2022-12-11T12:20:08;23.27;;;13.40;;
9324;SDS011;4701;51.566;6.776;2022-12-11T12:22:20;20.63;;;12.43;;
9324;SDS011;4701;51.566;6.776;2022-12-11T12:24:36;24.90;;;13.77;;
9324;SDS011;4701;51.566;6.776;2022-12-11T12:26:48;20.80;;;12.93;;
9324;SDS011;4701;51.566;6.776;2022-12-11T12:29:00;22.67;;;13.43;;
9324;SDS011;4701;51.566;6.776;2022-12-11T12:31:16;28.87;;;15.70;;
9324;SDS011;4701;51.566;6.776;2022-12-11T12:33:31;23.43;;;14.57;;
9324;SDS011;4701;51.566;6.776;2022-12-11T12:35:48;21.50;;;13.63;;
9324;SDS011;4701;51.566;6.776;2022-12-11T12:37:57;22.30;;;14.37;;
9324;SDS011;4701;51.566;6.776;2022-12-11T12:40:09;21.97;;;14.10;;
9324;SDS011;4701;51.566;6.776;2022-12-11T12:42:21;25.00;;;13.47;;
9324;SDS011;4701;51.566;6.776;2022-12-11T12:44:31;23.47;;;13.70;;
9324;SDS011;4701;51.566;6.776;2022-12-11T12:46:45;23.50;;;13.83;;
9324;SDS011;4701;51.566;6.776;2022-12-11T12:48:57;23.13;;;14.23;;
9324;SDS011;4701;51.566;6.776;2022-12-11T12:51:01;22.40;;;13.87;;
9324;SDS011;4701;51.566;6.776;2022-12-11T12:53:04;25.10;;;13.63;;
9324;SDS011;4701;51.566;6.776;2022-12-11T12:55:15;22.77;;;13.63;;
9324;SDS011;4701;51.566;6.776;2022-12-11T12:57:22;25.50;;;14.43;;
9324;SDS011;4701;51.566;6.776;2022-12-11T12:59:24;22.17;;;13.47;;
9324;SDS011;4701;51.566;6.776;2022-12-11T13:01:27;19.83;;;13.10;;
9324;SDS011;4701;51.566;6.776;2022-12-11T13:03:34;23.00;;;14.00;;
9324;SDS011;4701;51.566;6.776;2022-12-11T13:05:39;21.77;;;13.77;;
9324;SDS011;4701;51.566;6.776;2022-12-11T13:07:46;26.23;;;14.40;;
9324;SDS011;4701;51.566;6.776;2022-12-11T13:09:56;21.70;;;13.83;;
9324;SDS011;4701;51.566;6.776;2022-12-11T13:12:01;26.63;;;14.37;;
9324;SDS011;4701;51.566;6.776;2022-12-11T13:14:24;21.83;;;14.67;;
9324;SDS011;4701;51.566;6.776;2022-12-11T13:16:34;23.77;;;15.70;;
9324;SDS011;4701;51.566;6.776;2022-12-11T13:18:38;25.77;;;15.10;;
9324;SDS011;4701;51.566;6.776;2022-12-11T13:20:45;25.07;;;15.03;;
9324;SDS011;4701;51.566;6.776;2022-12-11T13:22:54;23.43;;;15.03;;
9324;SDS011;4701;51.566;6.776;2022-12-11T13:25:16;23.27;;;15.50;;
9324;SDS011;4701;51.566;6.776;2022-12-11T13:27:22;23.67;;;14.93;;
9324;SDS011;4701;51.566;6.776;2022-12-11T13:29:29;25.00;;;15.90;;
9324;SDS011;4701;51.566;6.776;2022-12-11T13:31:35;23.40;;;15.37;;
9324;SDS011;4701;51.566;6.776;2022-12-11T13:33:41;26.30;;;16.27;;
9324;SDS011;4701;51.566;6.776;2022-12-11T13:35:46;23.77;;;15.57;;
9324;SDS011;4701;51.566;6.776;2022-12-11T13:37:48;23.77;;;14.77;;
9324;SDS011;4701;51.566;6.776;2022-12-11T13:39:53;23.13;;;15.20;;
9324;SDS011;4701;51.566;6.776;2022-12-11T13:41:56;23.33;;;14.40;;
9324;SDS011;4701;51.566;6.776;2022-12-11T13:44:00;25.03;;;15.30;;
9324;SDS011;4701;51.566;6.776;2022-12-11T13:46:05;24.90;;;15.37;;
9324;SDS011;4701;51.566;6.776;2022-12-11T13:48:14;23.50;;;14.67;;
9324;SDS011;4701;51.566;6.776;2022-12-11T13:50:23;23.80;;;14.30;;
9324;SDS011;4701;51.566;6.776;2022-12-11T13:52:28;23.23;;;14.77;;
9324;SDS011;4701;51.566;6.776;2022-12-11T13:54:31;23.30;;;15.30;;
9324;SDS011;4701;51.566;6.776;2022-12-11T13:56:35;23.37;;;15.07;;
9324;SDS011;4701;51.566;6.776;2022-12-11T13:58:37;26.60;;;15.77;;
9324;SDS011;4701;51.566;6.776;2022-12-11T14:00:40;24.93;;;16.07;;
9324;SDS011;4701;51.566;6.776;2022-12-11T14:02:41;27.50;;;18.43;;
9324;SDS011;4701;51.566;6.776;2022-12-11T14:04:43;28.23;;;17.67;;
9324;SDS011;4701;51.566;6.776;2022-12-11T14:06:48;28.43;;;17.90;;
9324;SDS011;4701;51.566;6.776;2022-12-11T14:08:50;28.23;;;19.10;;
9324;SDS011;4701;51.566;6.776;2022-12-11T14:10:55;27.80;;;19.23;;
9324;SDS011;4701;51.566;6.776;2022-12-11T14:12:58;30.17;;;17.30;;
9324;SDS011;4701;51.566;6.776;2022-12-11T14:15:02;26.30;;;16.40;;
9324;SDS011;4701;51.566;6.776;2022-12-11T14:17:05;25.80;;;15.13;;
9324;SDS011;4701;51.566;6.776;2022-12-11T14:19:14;26.07;;;16.23;;
9324;SDS011;4701;51.566;6.776;2022-12-11T14:21:19;26.23;;;17.57;;
9324;SDS011;4701;51.566;6.776;2022-12-11T14:23:24;24.97;;;16.40;;
9324;SDS011;4701;51.566;6.776;2022-12-11T14:25:27;25.70;;;18.03;;
9324;SDS011;4701;51.566;6.776;2022-12-11T14:27:29;31.10;;;20.27;;
9324;SDS011;4701;51.566;6.776;2022-12-11T14:29:31;37.67;;;22.90;;
9324;SDS011;4701;51.566;6.776;2022-12-11T14:31:34;27.07;;;15.93;;
9324;SDS011;4701;51.566;6.776;2022-12-11T14:33:41;27.57;;;17.83;;
9324;SDS011;4701;51.566;6.776;2022-12-11T14:35:45;27.63;;;17.40;;
9324;SDS011;4701;51.566;6.776;2022-12-11T14:37:48;27.67;;;17.67;;
9324;SDS011;4701;51.566;6.776;2022-12-11T14:39:55;27.20;;;17.13;;
9324;SDS011;4701;51.566;6.776;2022-12-11T14:42:00;29.80;;;17.07;;
9324;SDS011;4701;51.566;6.776;2022-12-11T14:44:05;31.43;;;17.73;;
9324;SDS011;4701;51.566;6.776;2022-12-11T14:46:14;29.57;;;17.67;;
9324;SDS011;4701;51.566;6.776;2022-12-11T14:48:19;28.63;;;16.53;;
9324;SDS011;4701;51.566;6.776;2022-12-11T14:50:28;29.83;;;18.23;;
9324;SDS011;4701;51.566;6.776;2022-12-11T14:52:37;27.80;;;18.13;;
9324;SDS011;4701;51.566;6.776;2022-12-11T14:54:42;30.93;;;18.10;;
9324;SDS011;4701;51.566;6.776;2022-12-11T14:56:51;30.10;;;17.83;;
9324;SDS011;4701;51.566;6.776;2022-12-11T14:58:56;34.50;;;20.00;;
9324;SDS011;4701;51.566;6.776;2022-12-11T15:01:01;27.37;;;18.43;;
9324;SDS011;4701;51.566;6.776;2022-12-11T15:03:18;34.80;;;19.10;;
9324;SDS011;4701;51.566;6.776;2022-12-11T15:05:23;28.83;;;17.73;;
9324;SDS011;4701;51.566;6.776;2022-12-11T15:07:24;28.83;;;18.53;;
9324;SDS011;4701;51.566;6.776;2022-12-11T15:09:27;31.43;;;19.33;;
9324;SDS011;4701;51.566;6.776;2022-12-11T15:11:37;30.53;;;18.57;;
9324;SDS011;4701;51.566;6.776;2022-12-11T15:13:46;28.67;;;18.13;;
9324;SDS011;4701;51.566;6.776;2022-12-11T15:15:51;27.47;;;17.43;;
9324;SDS011;4701;51.566;6.776;2022-12-11T15:17:55;28.37;;;17.03;;
9324;SDS011;4701;51.566;6.776;2022-12-11T15:19:59;30.67;;;18.10;;
9324;SDS011;4701;51.566;6.776;2022-12-11T15:22:06;29.07;;;17.50;;
9324;SDS011;4701;51.566;6.776;2022-12-11T15:24:19;31.13;;;17.43;;
9324;SDS011;4701;51.566;6.776;2022-12-11T15:26:31;31.73;;;17.00;;
9324;SDS011;4701;51.566;6.776;2022-12-11T15:28:35;32.23;;;18.20;;
9324;SDS011;4701;51.566;6.776;2022-12-11T15:30:40;31.30;;;17.60;;
9324;SDS011;4701;51.566;6.776;2022-12-11T15:32:42;38.50;;;24.13;;
9324;SDS011;4701;51.566;6.776;2022-12-11T15:34:45;35.13;;;21.80;;
9324;SDS011;4701;51.566;6.776;2022-12-11T15:36:48;32.57;;;20.43;;
9324;SDS011;4701;51.566;6.776;2022-12-11T15:38:50;27.67;;;17.93;;
9324;SDS011;4701;51.566;6.776;2022-12-11T15:40:52;29.50;;;18.37;;
9324;SDS011;4701;51.566;6.776;2022-12-11T15:42:54;25.73;;;16.30;;
9324;SDS011;4701;51.566;6.776;2022-12-11T15:44:57;33.10;;;18.93;;
9324;SDS011;4701;51.566;6.776;2022-12-11T15:47:11;30.57;;;18.33;;
9324;SDS011;4701;51.566;6.776;2022-12-11T15:49:13;28.90;;;17.33;;
9324;SDS011;4701;51.566;6.776;2022-12-11T15:51:15;31.30;;;18.43;;
9324;SDS011;4701;51.566;6.776;2022-12-11T15:53:17;29.23;;;17.80;;
9324;SDS011;4701;51.566;6.776;2022-12-11T15:55:20;27.03;;;16.97;;
9324;SDS011;4701;51.566;6.776;2022-12-11T15:57:23;22.43;;;15.27;;
9324;SDS011;4701;51.566;6.776;2022-12-11T15:59:26;24.03;;;15.83;;
9324;SDS011;4701;51.566;6.776;2022-12-11T16:01:28;19.50;;;13.00;;
9324;SDS011;4701;51.566;6.776;2022-12-11T16:03:32;18.53;;;11.60;;
9324;SDS011;4701;51.566;6.776;2022-12-11T16:05:34;20.63;;;13.00;;
9324;SDS011;4701;51.566;6.776;2022-12-11T16:07:36;18.13;;;11.00;;
9324;SDS011;4701;51.566;6.776;2022-12-11T16:09:38;17.67;;;11.23;;
9324;SDS011;4701;51.566;6.776;2022-12-11T16:11:40;18.57;;;11.27;;
9324;SDS011;4701;51.566;6.776;2022-12-11T16:13:42;15.63;;;9.63;;
9324;SDS011;4701;51.566;6.776;2022-12-11T16:15:44;15.53;;;10.07;;
9324;SDS011;4701;51.566;6.776;2022-12-11T16:17:47;18.77;;;11.17;;
9324;SDS011;4701;51.566;6.776;2022-12-11T16:19:52;18.53;;;11.07;;
9324;SDS011;4701;51.566;6.776;2022-12-11T16:21:54;17.37;;;11.50;;
9324;SDS011;4701;51.566;6.776;2022-12-11T16:23:57;16.50;;;10.40;;
9324;SDS011;4701;51.566;6.776;2022-12-11T16:26:03;19.73;;;12.60;;
9324;SDS011;4701;51.566;6.776;2022-12-11T16:28:09;16.13;;;9.63;;
9324;SDS011;4701;51.566;6.776;2022-12-11T16:30:12;19.53;;;10.53;;
9324;SDS011;4701;51.566;6.776;2022-12-11T16:32:14;17.50;;;10.17;;
9324;SDS011;4701;51.566;6.776;2022-12-11T16:34:16;16.23;;;9.60;;
9324;SDS011;4701;51.566;6.776;2022-12-11T16:36:19;21.10;;;11.07;;
9324;SDS011;4701;51.566;6.776;2022-12-11T16:38:21;16.87;;;10.20;;
9324;SDS011;4701;51.566;6.776;2022-12-11T16:40:23;19.83;;;11.00;;
9324;SDS011;4701;51.566;6.776;2022-12-11T16:42:25;19.47;;;12.57;;
9324;SDS011;4701;51.566;6.776;2022-12-11T16:44:27;21.23;;;12.80;;
9324;SDS011;4701;51.566;6.776;2022-12-11T16:46:29;21.47;;;13.20;;
9324;SDS011;4701;51.566;6.776;2022-12-11T16:48:30;20.60;;;12.37;;
9324;SDS011;4701;51.566;6.776;2022-12-11T16:50:32;19.53;;;12.77;;
9324;SDS011;4701;51.566;6.776;2022-12-11T16:52:37;19.57;;;12.27;;
9324;SDS011;4701;51.566;6.776;2022-12-11T16:54:38;19.77;;;12.60;;
9324;SDS011;4701;51.566;6.776;2022-12-11T16:56:40;19.20;;;11.77;;
9324;SDS011;4701;51.566;6.776;2022-12-11T16:58:42;15.47;;;10.53;;
9324;SDS011;4701;51.566;6.776;2022-12-11T17:00:44;18.13;;;11.50;;
9324;SDS011;4701;51.566;6.776;2022-12-11T17:02:47;19.13;;;11.87;;
9324;SDS011;4701;51.566;6.776;2022-12-11T17:04:48;19.23;;;12.33;;
9324;SDS011;4701;51.566;6.776;2022-12-11T17:06:50;17.93;;;11.17;;
9324;SDS011;4701;51.566;6.776;2022-12-11T17:08:54;18.17;;;12.13;;
9324;SDS011;4701;51.566;6.776;2022-12-11T17:10:55;21.03;;;12.13;;
9324;SDS011;4701;51.566;6.776;2022-12-11T17:12:57;20.00;;;12.30;;
9324;SDS011;4701;51.566;6.776;2022-12-11T17:14:59;18.97;;;11.87;;
9324;SDS011;4701;51.566;6.776;2022-12-11T17:17:01;19.03;;;11.97;;
9324;SDS011;4701;51.566;6.776;2022-12-11T17:19:02;19.53;;;11.80;;
9324;SDS011;4701;51.566;6.776;2022-12-11T17:21:06;21.87;;;12.83;;
9324;SDS011;4701;51.566;6.776;2022-12-11T17:23:10;18.43;;;12.20;;
9324;SDS011;4701;51.566;6.776;2022-12-11T17:25:14;22.87;;;13.33;;
9324;SDS011;4701;51.566;6.776;2022-12-11T17:27:21;21.27;;;12.80;;
9324;SDS011;4701;51.566;6.776;2022-12-11T17:29:23;19.17;;;13.17;;
9324;SDS011;4701;51.566;6.776;2022-12-11T17:31:25;20.53;;;11.97;;
9324;SDS011;4701;51.566;6.776;2022-12-11T17:33:27;19.30;;;12.67;;
9324;SDS011;4701;51.566;6.776;2022-12-11T17:35:30;17.30;;;11.33;;
9324;SDS011;4701;51.566;6.776;2022-12-11T17:37:32;18.00;;;11.90;;
9324;SDS011;4701;51.566;6.776;2022-12-11T17:39:33;20.50;;;12.67;;
9324;SDS011;4701;51.566;6.776;2022-12-11T17:41:38;18.03;;;11.53;;
9324;SDS011;4701;51.566;6.776;2022-12-11T17:43:40;20.57;;;12.43;;
9324;SDS011;4701;51.566;6.776;2022-12-11T17:45:42;22.80;;;13.00;;
9324;SDS011;4701;51.566;6.776;2022-12-11T17:47:45;21.60;;;12.37;;
9324;SDS011;4701;51.566;6.776;2022-12-11T17:49:46;20.97;;;11.87;;
9324;SDS011;4701;51.566;6.776;2022-12-11T17:51:48;21.47;;;11.77;;
9324;SDS011;4701;51.566;6.776;2022-12-11T17:53:52;18.57;;;12.60;;
9324;SDS011;4701;51.566;6.776;2022-12-11T17:55:58;17.43;;;10.90;;
9324;SDS011;4701;51.566;6.776;2022-12-11T17:58:01;19.03;;;11.07;;
9324;SDS011;4701;51.566;6.776;2022-12-11T18:00:05;17.07;;;11.53;;
9324;SDS011;4701;51.566;6.776;2022-12-11T18:02:12;16.33;;;11.60;;
9324;SDS011;4701;51.566;6.776;2022-12-11T18:04:14;18.40;;;11.97;;
9324;SDS011;4701;51.566;6.776;2022-12-11T18:06:16;20.83;;;12.37;;
9324;SDS011;4701;51.566;6.776;2022-12-11T18:08:19;20.93;;;12.47;;
9324;SDS011;4701;51.566;6.776;2022-12-11T18:10:22;16.50;;;11.37;;
9324;SDS011;4701;51.566;6.776;2022-12-11T18:12:24;15.47;;;10.83;;
9324;SDS011;4701;51.566;6.776;2022-12-11T18:14:28;17.23;;;11.73;;
9324;SDS011;4701;51.566;6.776;2022-12-11T18:16:30;18.50;;;11.93;;
9324;SDS011;4701;51.566;6.776;2022-12-11T18:18:33;19.63;;;12.23;;
9324;SDS011;4701;51.566;6.776;2022-12-11T18:20:41;34.67;;;21.77;;
9324;SDS011;4701;51.566;6.776;2022-12-11T18:22:53;26.67;;;17.53;;
9324;SDS011;4701;51.566;6.776;2022-12-11T18:24:55;24.67;;;15.63;;
9324;SDS011;4701;51.566;6.776;2022-12-11T18:26:58;23.33;;;15.07;;
9324;SDS011;4701;51.566;6.776;2022-12-11T18:29:00;23.50;;;14.10;;
9324;SDS011;4701;51.566;6.776;2022-12-11T18:31:04;20.23;;;13.30;;
9324;SDS011;4701;51.566;6.776;2022-12-11T18:33:06;23.03;;;14.73;;
9324;SDS011;4701;51.566;6.776;2022-12-11T18:35:09;20.70;;;13.93;;